createdAt,value
2022-12-25T06:55:45.656Z,73.5
2022-12-25T07:01:16.325Z,64.5
2022-12-25T07:06:46.675Z,60
2022-12-25T07:12:17.192Z,57.5
2022-12-25T07:17:47.653Z,56.5
2022-12-25T07:23:18.371Z,55.5
2022-12-25T07:29:54.955Z,55
2022-12-25T07:35:25.470Z,54.5
2022-12-25T07:40:56.090Z,54.5
2022-12-25T07:46:25.645Z,54.5
2022-12-25T07:51:55.068Z,54
2022-12-25T07:57:25.557Z,54
2022-12-25T08:02:55.284Z,54
2022-12-25T08:08:25.523Z,54
2022-12-25T08:13:55.269Z,54
2022-12-25T08:19:25.757Z,53.5
2022-12-25T08:24:56.213Z,53.5
2022-12-25T08:30:27.489Z,53.5
2022-12-25T08:35:57.434Z,53.5
2022-12-25T08:41:27.316Z,53.5
2022-12-25T08:46:56.777Z,53
2022-12-25T08:52:27.361Z,53
2022-12-25T08:57:57.921Z,53
2022-12-25T09:03:28.510Z,53
2022-12-25T09:08:58.054Z,53
2022-12-25T09:14:28.523Z,53
2022-12-25T09:19:59.028Z,53
2022-12-25T09:25:28.518Z,53
2022-12-25T09:30:58.293Z,53
2022-12-25T09:36:28.007Z,53
2022-12-25T09:41:58.790Z,53
2022-12-25T09:47:29.214Z,53
2022-12-25T09:52:59.837Z,53
2022-12-25T09:58:30.449Z,53
2022-12-25T10:04:00.928Z,52.5
2022-12-25T10:09:30.539Z,52.5
2022-12-25T10:15:01.078Z,52.5
2022-12-25T10:20:30.654Z,52.5
2022-12-25T10:26:01.132Z,52.5
2022-12-25T10:31:31.984Z,52.5
2022-12-25T10:37:02.353Z,52.5
2022-12-25T10:42:31.831Z,52.5
2022-12-25T10:48:07.151Z,52.5
2022-12-25T10:53:32.783Z,52.5
2022-12-25T10:59:00.455Z,52.5
2022-12-25T11:04:31.217Z,52
2022-12-25T11:10:05.169Z,52.5
2022-12-25T11:15:32.157Z,52.5
2022-12-25T11:21:02.781Z,52.5
2022-12-25T11:26:33.509Z,52
2022-12-25T11:32:04.113Z,52
2022-12-25T11:37:34.634Z,52.5
2022-12-25T11:43:08.223Z,52
2022-12-25T11:48:35.645Z,52.5
2022-12-25T11:54:05.320Z,52
2022-12-25T11:59:35.804Z,52.5
2022-12-25T12:05:06.277Z,52.5
2022-12-25T12:10:36.880Z,52.5
2022-12-25T12:16:05.563Z,52.5
2022-12-25T12:21:36.352Z,52.5
2022-12-25T12:27:06.951Z,52.5
2022-12-25T12:32:37.410Z,52.5
2022-12-25T12:38:08.022Z,52
2022-12-25T12:43:37.679Z,52.5
2022-12-25T12:49:08.381Z,52.5
2022-12-25T12:54:38.865Z,52
2022-12-25T13:00:11.060Z,52
2022-12-25T13:05:38.930Z,52
2022-12-25T13:11:09.814Z,52
2022-12-25T13:16:39.532Z,52
2022-12-25T13:22:09.936Z,52
2022-12-25T13:27:39.415Z,52
2022-12-25T13:33:09.981Z,52
2022-12-25T13:38:39.637Z,52
2022-12-25T13:44:09.135Z,52
2022-12-25T13:49:39.637Z,52
2022-12-25T13:55:10.058Z,52
2022-12-25T14:00:40.764Z,52
2022-12-25T14:06:11.523Z,52
2022-12-25T14:11:42.350Z,51.5
2022-12-25T14:17:12.771Z,51.5
2022-12-25T14:22:43.340Z,52
2022-12-25T14:28:13.799Z,51.5
2022-12-25T14:33:43.414Z,51.5
2022-12-25T14:39:13.922Z,51.5
2022-12-25T14:44:44.384Z,51.5
2022-12-25T14:50:13.867Z,51.5
2022-12-25T14:55:44.381Z,51.5
2022-12-25T15:01:13.191Z,51.5
2022-12-25T15:06:41.822Z,51.5
2022-12-25T15:12:12.245Z,51.5
2022-12-25T15:17:42.705Z,51.5
2022-12-25T15:23:20.787Z,51.5
2022-12-25T15:28:43.935Z,51.5
2022-12-25T15:34:13.689Z,51.5
2022-12-25T15:39:44.136Z,51.5
2022-12-25T15:45:14.656Z,51.5
2022-12-25T15:50:44.157Z,51.5
2022-12-25T15:56:14.853Z,51.5
2022-12-25T16:01:45.565Z,51.5
2022-12-25T16:07:15.923Z,51.5
2022-12-25T16:12:46.532Z,51.5
2022-12-25T16:18:15.061Z,51.5
2022-12-25T16:23:45.495Z,51.5
2022-12-25T16:29:15.973Z,51.5
2022-12-25T16:34:46.580Z,51.5
2022-12-25T16:40:17.169Z,51.5
2022-12-25T16:45:47.644Z,51.5
2022-12-25T16:51:18.367Z,51
2022-12-25T16:56:48.692Z,51
2022-12-25T17:02:19.412Z,51
2022-12-25T17:07:49.826Z,51
2022-12-25T17:13:20.278Z,51.5
2022-12-25T17:18:50.767Z,51.5
2022-12-25T17:25:26.365Z,51.5
2022-12-25T17:30:57.168Z,51.5
2022-12-25T17:36:26.297Z,51.5
2022-12-25T17:41:56.790Z,51.5
2022-12-25T17:47:27.241Z,51.5
2022-12-25T17:52:57.820Z,52
2022-12-25T17:58:28.341Z,51.5
2022-12-25T18:03:58.957Z,52
2022-12-25T18:09:29.409Z,52
2022-12-25T18:14:59.944Z,52
2022-12-25T18:20:35.902Z,52
2022-12-25T18:26:01.093Z,52
2022-12-25T18:31:31.724Z,51.5
2022-12-25T18:37:02.206Z,51.5
2022-12-25T18:42:32.687Z,52
2022-12-25T18:48:02.170Z,52
2022-12-25T18:53:32.666Z,52
2022-12-25T18:59:03.126Z,52
2022-12-25T19:04:33.741Z,52.5
2022-12-25T19:10:04.261Z,52.5
2022-12-25T19:15:34.730Z,52
2022-12-25T19:21:05.360Z,52
2022-12-25T19:26:35.824Z,52
2022-12-25T19:32:06.440Z,52.5
2022-12-25T19:37:36.994Z,52.5
2022-12-25T19:43:07.490Z,53
2022-12-25T19:48:38.074Z,53
2022-12-25T19:54:08.567Z,53
2022-12-25T19:59:39.043Z,53
2022-12-25T20:05:09.611Z,53
2022-12-25T20:10:40.102Z,53
2022-12-25T20:16:10.659Z,53
2022-12-25T20:21:41.149Z,53
2022-12-25T20:27:11.660Z,53
2022-12-25T20:32:48.092Z,53
2022-12-25T20:38:12.779Z,53
2022-12-25T20:43:45.512Z,52.5
2022-12-25T20:49:13.861Z,53
2022-12-25T20:54:44.346Z,53
2022-12-25T21:00:14.836Z,53
2022-12-25T21:05:44.289Z,53.5
2022-12-25T21:11:14.766Z,53
2022-12-25T21:16:45.323Z,53
2022-12-25T21:22:15.831Z,53
2022-12-25T21:27:46.330Z,53.5
2022-12-25T21:33:17.397Z,53.5
2022-12-25T21:38:47.369Z,53.5
2022-12-25T21:44:17.921Z,53.5
2022-12-25T21:49:47.430Z,53.5
2022-12-25T21:55:17.895Z,53.5
2022-12-25T22:00:48.480Z,53.5
2022-12-25T22:06:21.684Z,53.5
2022-12-25T22:11:49.408Z,54
2022-12-25T22:17:20.040Z,54
2022-12-25T22:22:50.659Z,54
2022-12-25T22:28:21.129Z,54
2022-12-25T22:33:50.597Z,54
2022-12-25T22:39:21.066Z,54
2022-12-25T22:44:51.636Z,54
2022-12-25T22:50:22.154Z,54
2022-12-25T22:55:52.638Z,54
2022-12-25T23:01:22.145Z,54
2022-12-25T23:06:52.585Z,54
2022-12-25T23:12:23.082Z,54
2022-12-25T23:17:53.634Z,54
2022-12-25T23:23:24.214Z,54.5
2022-12-25T23:28:54.826Z,54.5
2022-12-25T23:34:25.283Z,54.5
2022-12-25T23:39:55.752Z,54.5
2022-12-25T23:45:26.386Z,54.5
2022-12-25T23:50:56.964Z,55
2022-12-25T23:56:27.451Z,55
